Time;durP1;ratioP1;P1;durP2;ratioP2;P2;SDS_P1;SDS_P2;PMS_P1;PMS_P2;Temp;Humidity;BMP_temperature;BMP_pressure;BME280_temperature;BME280_humidity;BME280_pressure;Samples;Min_cycle;Max_cycle;Signal;HPM_P1;HPM_P2
2022/01/08 00:02:08;;;;;;;0.25;0.25;;;;;;;19.19;42.36;100587.25;5139466;27;20042;-36
2022/01/08 00:04:34;;;;;;;0.20;0.20;;;;;;;19.19;42.31;100584.50;5144754;27;20046;-34
2022/01/08 00:07:00;;;;;;;0.20;0.20;;;;;;;19.19;42.26;100579.81;5136779;27;20482;-34
2022/01/08 00:09:25;;;;;;;0.20;0.20;;;;;;;19.19;42.26;100585.31;5138513;27;20104;-34
2022/01/08 00:11:51;;;;;;;0.20;0.20;;;;;;;19.19;42.27;100592.78;5137025;27;20031;-35
2022/01/08 00:14:20;;;;;;;0.20;0.20;;;;;;;19.20;42.37;100581.44;5118987;27;20092;-35
2022/01/08 00:16:46;;;;;;;0.20;0.20;;;;;;;19.20;42.23;100580.63;5137504;27;20039;-34
2022/01/08 00:19:12;;;;;;;0.20;0.20;;;;;;;19.18;42.32;100578.16;5133334;27;20049;-34
2022/01/08 00:21:38;;;;;;;0.20;0.20;;;;;;;19.19;42.50;100578.97;5123694;27;20053;-40
2022/01/08 00:24:03;;;;;;;0.20;0.20;;;;;;;19.18;42.27;100580.09;5133179;27;20043;-34
2022/01/08 00:26:29;;;;;;;0.20;0.20;;;;;;;19.20;42.51;100586.13;5116285;27;20035;-35
2022/01/08 00:28:55;;;;;;;0.20;0.20;;;;;;;19.19;42.34;100581.75;5136473;27;20378;-34
2022/01/08 00:31:20;;;;;;;0.20;0.20;;;;;;;19.18;42.60;100585.63;5141032;27;20061;-35
2022/01/08 00:33:47;;;;;;;0.20;0.20;;;;;;;19.18;42.37;100591.16;5134209;27;20046;-34
2022/01/08 00:36:13;;;;;;;0.30;0.30;;;;;;;19.18;42.49;100597.47;5122117;27;20070;-34
2022/01/08 00:38:39;;;;;;;0.20;0.20;;;;;;;19.18;42.32;100591.16;5135456;27;20043;-36
2022/01/08 00:41:05;;;;;;;0.20;0.20;;;;;;;19.18;42.61;100593.91;5137276;27;20051;-34
2022/01/08 00:43:31;;;;;;;0.20;0.20;;;;;;;19.17;42.34;100598.59;5121685;27;20115;-35
2022/01/08 00:45:56;;;;;;;0.20;0.20;;;;;;;19.19;42.33;100606.59;5135570;27;20074;-36
2022/01/08 00:48:22;;;;;;;0.20;0.20;;;;;;;19.19;42.35;100603.81;5138785;27;20050;-34
2022/01/08 00:50:49;;;;;;;0.20;0.20;;;;;;;19.18;42.59;100607.72;5123784;27;20042;-34
2022/01/08 00:53:15;;;;;;;0.20;0.20;;;;;;;19.18;42.59;100608.53;5116939;27;20091;-34
2022/01/08 00:55:41;;;;;;;0.20;0.20;;;;;;;19.19;42.43;100599.13;5137082;27;20047;-37
2022/01/08 00:58:07;;;;;;;0.20;0.20;;;;;;;19.19;42.56;100601.06;5117988;27;20054;-34
2022/01/08 01:00:32;;;;;;;0.20;0.20;;;;;;;19.17;42.24;100598.59;5137623;27;20050;-35
2022/01/08 01:02:58;;;;;;;0.20;0.20;;;;;;;19.18;42.56;100599.44;5115727;27;20054;-35
2022/01/08 01:05:24;;;;;;;0.68;0.68;;;;;;;19.18;42.51;100614.03;5139019;27;20091;-34
2022/01/08 01:07:49;;;;;;;0.20;0.20;;;;;;;19.18;42.60;100614.03;5133730;27;20360;-34
2022/01/08 01:10:17;;;;;;;0.20;0.20;;;;;;;19.16;42.51;100607.97;5133565;27;20092;-38
2022/01/08 01:12:43;;;;;;;0.20;0.20;;;;;;;19.17;42.27;100606.88;5137164;27;20042;-39
2022/01/08 01:15:10;;;;;;;0.20;0.20;;;;;;;19.17;42.42;100606.88;5139745;27;20050;-34
2022/01/08 01:17:36;;;;;;;0.20;0.20;;;;;;;19.18;42.31;100602.19;5119550;27;20054;-35
2022/01/08 01:20:03;;;;;;;0.20;0.20;;;;;;;19.17;42.37;100604.13;5141496;27;20051;-36
2022/01/08 01:22:39;;;;;;;0.20;0.20;;;;;;;19.16;42.53;100601.63;5137431;27;21190;-36
2022/01/08 01:25:07;;;;;;;0.20;0.20;;;;;;;19.17;42.37;100606.88;5138689;27;20043;-36
2022/01/08 01:30:27;;;;;;;0.20;0.20;;;;;;;19.17;42.43;100614.31;5129438;27;20434;-34
2022/01/08 01:41:51;;;;;;;0.20;0.20;;;;;;;19.14;42.62;100629.53;5125631;27;20485;-36
2022/01/08 01:47:04;;;;;;;0.20;0.20;;;;;;;19.15;42.42;100622.91;5126536;27;20453;-34
2022/01/08 01:49:35;;;;;;;0.20;0.20;;;;;;;19.15;42.34;100631.19;5140309;27;20051;-35
2022/01/08 01:52:02;;;;;;;0.20;0.20;;;;;;;19.15;42.60;100627.59;5119213;27;20050;-35
2022/01/08 01:54:28;;;;;;;0.20;0.20;;;;;;;19.14;42.43;100626.78;5142449;27;20062;-35
2022/01/08 01:56:55;;;;;;;0.20;0.20;;;;;;;19.14;42.26;100626.78;5143451;27;20043;-35
2022/01/08 01:59:21;;;;;;;0.20;0.20;;;;;;;19.15;42.59;100628.41;5143383;27;20070;-35
2022/01/08 02:01:47;;;;;;;0.20;0.20;;;;;;;19.15;42.42;100628.41;5138540;27;20386;-37
2022/01/08 02:04:13;;;;;;;0.20;0.20;;;;;;;19.16;42.66;100632.00;5140479;27;20046;-34
2022/01/08 02:06:38;;;;;;;0.20;0.20;;;;;;;19.14;42.46;100635.06;5137881;27;20462;-34
2022/01/08 02:09:04;;;;;;;0.20;0.20;;;;;;;19.14;42.51;100624.03;5140469;27;20050;-35
2022/01/08 02:11:30;;;;;;;0.20;0.20;;;;;;;19.14;42.36;100618.50;5138161;27;20394;-35
2022/01/08 02:14:03;;;;;;;0.20;0.20;;;;;;;19.14;42.56;100620.44;5138130;27;20046;-36
2022/01/08 02:16:29;;;;;;;0.20;0.20;;;;;;;19.14;42.33;100624.03;5117402;27;20061;-34
2022/01/08 02:18:55;;;;;;;0.20;0.20;;;;;;;19.14;42.40;100628.72;5141026;27;20043;-35
2022/01/08 02:21:20;;;;;;;0.20;0.20;;;;;;;19.13;42.61;100629.81;5139569;27;20450;-35
2022/01/08 02:23:48;;;;;;;0.20;0.20;;;;;;;19.12;42.56;100619.88;5136872;27;20189;-36
2022/01/08 02:26:13;;;;;;;0.20;0.20;;;;;;;19.12;42.30;100619.88;5140376;27;20035;-35
2022/01/08 02:28:41;;;;;;;0.20;0.20;;;;;;;19.13;42.57;100618.75;5115361;27;20378;-34
2022/01/08 02:31:07;;;;;;;0.20;0.20;;;;;;;19.12;42.66;100614.38;5137405;27;20047;-35
2022/01/08 02:33:33;;;;;;;0.20;0.20;;;;;;;19.13;42.60;100613.25;5136703;27;20047;-35
2022/01/08 02:36:04;;;;;;;0.20;0.20;;;;;;;19.13;42.36;100614.09;5138036;27;20039;-35
2022/01/08 02:38:30;;;;;;;0.20;0.20;;;;;;;19.12;42.65;100617.94;5119456;27;20067;-35
2022/01/08 02:41:00;;;;;;;0.20;0.20;;;;;;;19.13;42.61;100616.84;5139450;27;20043;-34
2022/01/08 02:43:27;;;;;;;0.20;0.20;;;;;;;19.13;42.41;100621.53;5137217;27;20039;-37
2022/01/08 02:45:54;;;;;;;0.20;0.20;;;;;;;19.12;42.63;100617.94;5137198;27;20038;-36
2022/01/08 02:48:19;;;;;;;0.20;0.20;;;;;;;19.12;42.31;100617.94;5138710;27;20438;-36
2022/01/08 02:50:46;;;;;;;0.20;0.20;;;;;;;19.12;42.46;100625.41;5120414;27;20075;-35
2022/01/08 02:53:12;;;;;;;0.20;0.20;;;;;;;19.11;42.53;100624.59;5132968;27;20051;-34
2022/01/08 02:55:38;;;;;;;0.20;0.20;;;;;;;19.11;42.42;100627.34;5120383;27;20043;-35
2022/01/08 02:58:03;;;;;;;0.20;0.20;;;;;;;19.13;42.52;100624.28;5140409;27;20096;-35
2022/01/08 03:00:29;;;;;;;0.20;0.20;;;;;;;19.12;42.46;100617.94;5141225;27;20043;-34
2022/01/08 03:02:55;;;;;;;0.20;0.20;;;;;;;19.11;42.54;100616.31;5140842;27;20043;-35
2022/01/08 03:05:21;;;;;;;0.20;0.20;;;;;;;19.12;42.28;100615.19;5137394;27;20046;-35
2022/01/08 03:07:49;;;;;;;0.30;0.30;;;;;;;19.12;42.23;100620.69;5126795;27;20442;-34
2022/01/08 03:10:16;;;;;;;0.30;0.30;;;;;;;19.12;42.25;100633.69;5137701;27;20065;-34
2022/01/08 03:12:42;;;;;;;0.20;0.20;;;;;;;19.12;42.62;100633.69;5144320;27;20046;-39
2022/01/08 03:15:10;;;;;;;0.20;0.20;;;;;;;19.12;42.37;100628.16;5103593;27;20045;-37
2022/01/08 03:17:36;;;;;;;0.20;0.20;;;;;;;19.10;42.54;100642.25;5118724;27;20046;-35
2022/01/08 03:20:06;;;;;;;0.20;0.20;;;;;;;19.11;42.23;100641.16;5119626;27;20138;-34
2022/01/08 03:22:32;;;;;;;0.20;0.20;;;;;;;19.11;42.63;100654.13;5138779;27;20050;-39
2022/01/08 03:24:59;;;;;;;0.20;0.20;;;;;;;19.11;42.36;100651.38;5136134;27;20039;-35
2022/01/08 03:27:24;;;;;;;0.20;0.20;;;;;;;19.11;42.41;100657.72;5134377;27;20051;-34
2022/01/08 03:29:50;;;;;;;0.20;0.20;;;;;;;19.10;42.56;100650.53;5140673;27;20043;-35
2022/01/08 03:32:16;;;;;;;0.20;0.20;;;;;;;19.10;42.42;100658.81;5136792;27;20051;-35
2022/01/08 03:34:42;;;;;;;0.20;0.20;;;;;;;19.09;42.29;100651.66;5116510;27;20042;-35
2022/01/08 03:37:08;;;;;;;0.25;0.25;;;;;;;19.10;42.25;100663.53;5139024;27;20091;-37
2022/01/08 03:39:34;;;;;;;0.20;0.20;;;;;;;19.10;42.40;100664.34;5135992;27;20050;-37
2022/01/08 03:41:59;;;;;;;0.20;0.20;;;;;;;19.10;42.19;100674.56;5143554;27;20474;-35
2022/01/08 03:44:25;;;;;;;0.20;0.20;;;;;;;19.10;42.57;100671.81;5134485;27;20050;-34
2022/01/08 03:46:51;;;;;;;0.20;0.20;;;;;;;19.10;42.48;100671.81;5139347;27;20382;-35
2022/01/08 03:49:24;;;;;;;0.20;0.20;;;;;;;19.10;42.23;100674.56;5136377;27;20043;-34
2022/01/08 03:51:52;;;;;;;0.20;0.20;;;;;;;19.10;42.56;100677.31;5135185;27;20078;-36
2022/01/08 03:54:18;;;;;;;0.20;0.20;;;;;;;19.10;42.42;100677.31;5134849;27;20070;-36
2022/01/08 03:56:44;;;;;;;0.20;0.20;;;;;;;19.10;42.37;100677.31;5141552;27;20043;-38
2022/01/08 03:59:09;;;;;;;0.20;0.20;;;;;;;19.10;42.41;100677.31;5136369;27;20500;-37
2022/01/08 04:01:35;;;;;;;0.20;0.20;;;;;;;19.11;42.38;100681.72;5138930;27;20043;-35
2022/01/08 04:04:01;;;;;;;0.20;0.20;;;;;;;19.10;42.31;100685.59;5136108;27;20043;-34
2022/01/08 04:06:26;;;;;;;0.20;0.20;;;;;;;19.10;42.51;100680.09;5139874;27;20042;-35
2022/01/08 04:08:57;;;;;;;0.20;0.20;;;;;;;19.08;42.28;100685.88;5132579;27;20435;-35
2022/01/08 04:11:24;;;;;;;0.20;0.20;;;;;;;19.09;42.38;100684.78;5140421;27;20144;-35
2022/01/08 04:13:49;;;;;;;0.20;0.20;;;;;;;19.10;42.42;100693.88;5137328;27;20038;-35
2022/01/08 04:16:20;;;;;;;0.20;0.20;;;;;;;19.10;42.19;100702.16;5136517;27;20039;-35
2022/01/08 04:18:45;;;;;;;0.20;0.20;;;;;;;19.09;42.35;100698.59;5137414;27;20474;-35
2022/01/08 04:24:07;;;;;;;0.20;0.20;;;;;;;19.08;42.16;100701.59;5172292;27;20668;-34
2022/01/08 04:26:33;;;;;;;0.20;0.20;;;;;;;19.08;42.24;100702.44;5147715;27;20046;-34
2022/01/08 04:28:59;;;;;;;0.20;0.20;;;;;;;19.09;42.43;100704.09;5165787;27;20095;-34
2022/01/08 04:31:25;;;;;;;0.20;0.20;;;;;;;19.08;42.22;100710.72;5166639;27;20053;-34
2022/01/08 04:33:51;;;;;;;0.20;0.20;;;;;;;19.08;42.40;100716.22;5165257;27;20042;-34
2022/01/08 04:36:17;;;;;;;0.20;0.20;;;;;;;19.08;42.52;100713.47;5165718;27;20421;-34
2022/01/08 04:38:43;;;;;;;0.20;0.20;;;;;;;19.08;42.31;100716.22;5163996;27;20045;-34
2022/01/08 04:41:08;;;;;;;0.20;0.20;;;;;;;19.07;42.50;100722.88;5147132;27;20038;-36
2022/01/08 04:43:37;;;;;;;0.20;0.20;;;;;;;19.08;42.50;100721.75;5146313;27;20393;-35
2022/01/08 04:46:03;;;;;;;;;;;;;;;19.08;42.53;100723.69;5165663;27;20102;-35
2022/01/08 04:48:29;;;;;;;0.20;0.20;;;;;;;19.08;42.25;100723.69;5165469;27;20018;-34
2022/01/08 04:50:55;;;;;;;0.20;0.20;;;;;;;19.07;42.58;100716.53;5165970;27;20038;-35
2022/01/08 04:53:21;;;;;;;0.20;0.20;;;;;;;19.07;42.24;100719.28;5162106;27;20046;-37
2022/01/08 04:55:46;;;;;;;0.20;0.20;;;;;;;19.08;42.21;100715.41;5165676;27;20047;-34
2022/01/08 04:58:12;;;;;;;0.20;0.20;;;;;;;19.07;42.52;100711.00;5146780;27;20043;-35
2022/01/08 05:00:39;;;;;;;0.20;0.20;;;;;;;19.08;42.44;100718.16;5165253;27;20042;-34
2022/01/08 05:03:05;;;;;;;0.20;0.20;;;;;;;19.07;42.17;100719.28;5147388;27;20058;-34
2022/01/08 05:05:31;;;;;;;0.20;0.20;;;;;;;19.08;42.25;100723.69;5165071;27;20168;-34
2022/01/08 05:07:57;;;;;;;0.20;0.20;;;;;;;19.07;42.23;100728.38;5164469;27;20049;-34
2022/01/08 05:10:23;;;;;;;0.20;0.20;;;;;;;19.07;42.27;100735.84;5145638;27;20101;-34
2022/01/08 05:12:48;;;;;;;0.20;0.20;;;;;;;19.07;42.26;100728.38;5145868;27;20046;-38
2022/01/08 05:15:16;;;;;;;0.20;0.20;;;;;;;19.06;42.29;100729.50;5165727;27;20038;-39
2022/01/08 05:17:43;;;;;;;0.20;0.20;;;;;;;19.06;42.31;100729.50;5165863;27;20042;-34
2022/01/08 05:20:11;;;;;;;0.20;0.20;;;;;;;19.07;42.50;100733.09;5166769;27;20074;-34
2022/01/08 05:22:59;;;;;;;0.20;0.20;;;;;;;19.07;42.31;100730.31;5144359;27;20482;-35
2022/01/08 05:25:23;;;;;;;0.20;0.20;;;;;;;19.05;42.37;100725.94;5128926;27;20043;-34
2022/01/08 05:27:49;;;;;;;0.20;0.20;;;;;;;19.06;42.37;100737.78;5160023;27;20042;-34
2022/01/08 05:30:17;;;;;;;0.20;0.20;;;;;;;19.06;42.45;100735.03;5146957;27;20039;-34
2022/01/08 05:32:43;;;;;;;0.30;0.30;;;;;;;19.06;42.49;100735.03;5145898;27;20053;-34
2022/01/08 05:35:09;;;;;;;0.20;0.20;;;;;;;19.05;42.14;100736.97;5134782;27;20505;-34
2022/01/08 05:37:35;;;;;;;0.20;0.20;;;;;;;19.07;42.52;100741.38;5130409;27;20395;-34
2022/01/08 05:40:00;;;;;;;0.30;0.30;;;;;;;19.06;42.26;100735.03;5131619;27;20079;-35
2022/01/08 05:42:26;;;;;;;0.20;0.20;;;;;;;19.05;42.45;100742.47;5150539;27;20043;-34
2022/01/08 05:44:52;;;;;;;0.20;0.20;;;;;;;19.06;42.37;100743.31;5150743;27;20047;-34
2022/01/08 05:47:20;;;;;;;0.20;0.20;;;;;;;19.06;42.35;100743.31;5150248;27;20046;-34
2022/01/08 05:49:46;;;;;;;0.30;0.30;;;;;;;19.06;42.17;100743.31;5151786;27;20092;-34
2022/01/08 05:52:12;;;;;;;0.20;0.20;;;;;;;19.05;42.39;100748.00;5149533;27;20121;-34
2022/01/08 05:54:38;;;;;;;0.30;0.30;;;;;;;19.04;42.46;100745.50;5148373;27;20043;-34
2022/01/08 05:57:04;;;;;;;0.20;0.20;;;;;;;19.06;42.26;100759.88;5150287;27;20046;-34
2022/01/08 05:59:30;;;;;;;0.20;0.20;;;;;;;19.05;42.40;100756.28;5149915;27;20146;-34
2022/01/08 06:01:56;;;;;;;0.20;0.20;;;;;;;19.04;42.37;100757.41;5132175;27;20042;-36
2022/01/08 06:04:22;;;;;;;0.20;0.20;;;;;;;19.04;42.25;100757.41;5114797;27;20434;-34
2022/01/08 06:06:48;;;;;;;0.30;0.30;;;;;;;19.05;42.45;100772.03;5151361;27;20074;-34
2022/01/08 06:09:14;;;;;;;0.20;0.20;;;;;;;19.05;42.39;100770.09;5149601;27;20107;-34
2022/01/08 06:11:40;;;;;;;0.20;0.20;;;;;;;19.05;42.19;100767.31;5132261;27;20047;-34
2022/01/08 06:14:05;;;;;;;0.20;0.20;;;;;;;19.05;42.37;100772.84;5150007;27;20039;-35
2022/01/08 06:16:35;;;;;;;0.20;0.20;;;;;;;19.04;42.34;100768.44;5150072;27;20421;-35
2022/01/08 06:19:04;;;;;;;0.20;0.20;;;;;;;19.04;42.35;100776.72;5122349;27;20051;-34
2022/01/08 06:21:30;;;;;;;0.20;0.20;;;;;;;19.05;42.23;100788.59;5117035;27;20039;-35
2022/01/08 06:23:56;;;;;;;0.20;0.20;;;;;;;19.06;42.56;100793.00;5134747;27;20394;-34
2022/01/08 06:26:22;;;;;;;0.20;0.20;;;;;;;19.05;42.40;100789.41;5118501;27;20050;-34
2022/01/08 06:28:49;;;;;;;0.20;0.20;;;;;;;19.05;42.44;100791.34;5140239;27;20043;-35
2022/01/08 06:31:15;;;;;;;0.20;0.20;;;;;;;19.05;42.45;100796.88;5137182;27;20082;-35
2022/01/08 06:33:41;;;;;;;0.20;0.20;;;;;;;19.05;42.46;100800.44;5119213;27;20039;-36
2022/01/08 06:36:07;;;;;;;0.20;0.20;;;;;;;19.05;42.11;100794.09;5140285;27;20053;-34
2022/01/08 06:38:33;;;;;;;0.20;0.20;;;;;;;19.04;42.33;100800.72;5135168;27;20047;-34
2022/01/08 06:40:58;;;;;;;0.20;0.20;;;;;;;19.03;42.24;100805.41;5138454;27;20035;-34
2022/01/08 06:43:24;;;;;;;0.20;0.20;;;;;;;19.04;42.33;100818.13;5137555;27;20043;-34
2022/01/08 06:45:49;;;;;;;0.20;0.20;;;;;;;19.05;42.44;100817.00;5136112;27;20047;-35
2022/01/08 06:48:15;;;;;;;0.20;0.20;;;;;;;19.04;42.21;100817.28;5143355;27;20065;-35
2022/01/08 06:50:41;;;;;;;0.20;0.20;;;;;;;19.05;42.41;100818.94;5140253;27;20054;-34
2022/01/08 06:53:07;;;;;;;0.20;0.20;;;;;;;19.05;42.34;100819.78;5133051;27;20363;-34
2022/01/08 06:55:32;;;;;;;0.20;0.20;;;;;;;19.04;42.26;100809.84;5136700;27;20362;-35
2022/01/08 06:57:59;;;;;;;0.20;0.20;;;;;;;19.04;42.12;100807.09;5133819;27;20042;-35
2022/01/08 07:00:25;;;;;;;0.20;0.20;;;;;;;19.04;42.29;100820.03;5136278;27;20079;-34
2022/01/08 07:02:56;;;;;;;0.20;0.20;;;;;;;19.04;42.35;100814.50;5119904;27;20042;-34
2022/01/08 07:05:22;;;;;;;0.20;0.20;;;;;;;19.04;42.41;100807.09;5140669;27;20046;-35
2022/01/08 07:07:48;;;;;;;0.20;0.20;;;;;;;19.03;42.20;100808.16;5122517;27;20104;-34
2022/01/08 07:10:13;;;;;;;0.20;0.20;;;;;;;19.03;42.21;100808.16;5138849;27;20062;-36
2022/01/08 07:12:39;;;;;;;0.20;0.20;;;;;;;19.02;42.23;100808.47;5136286;27;20499;-35
2022/01/08 07:15:05;;;;;;;0.20;0.20;;;;;;;19.03;42.21;100818.38;5141137;27;20039;-34
2022/01/08 07:17:31;;;;;;;0.20;0.20;;;;;;;19.03;42.28;100815.63;5135433;27;20137;-34
2022/01/08 07:19:57;;;;;;;0.20;0.20;;;;;;;19.03;42.27;100812.88;5139554;27;20043;-34
2022/01/08 07:22:22;;;;;;;0.20;0.20;;;;;;;19.03;42.23;100813.69;5133354;27;20112;-35
2022/01/08 07:24:48;;;;;;;0.30;0.30;;;;;;;19.03;42.18;100815.63;5134503;27;20043;-34
2022/01/08 07:27:14;;;;;;;0.20;0.20;;;;;;;19.04;42.35;100811.75;5138309;27;20043;-34
2022/01/08 07:29:39;;;;;;;0.20;0.20;;;;;;;19.03;42.33;100804.59;5136603;27;20174;-36
2022/01/08 07:32:05;;;;;;;0.20;0.20;;;;;;;19.03;42.35;100813.69;5135229;27;20040;-34
2022/01/08 07:34:31;;;;;;;0.20;0.20;;;;;;;19.03;42.43;100812.88;5137971;27;20046;-35
2022/01/08 07:36:57;;;;;;;0.20;0.20;;;;;;;19.03;42.09;100815.63;5136430;27;20396;-35
2022/01/08 07:39:22;;;;;;;0.20;0.20;;;;;;;19.03;42.35;100818.38;5139756;27;20444;-35
2022/01/08 07:41:48;;;;;;;0.20;0.20;;;;;;;19.03;42.42;100821.97;5141903;27;20396;-34
2022/01/08 07:44:14;;;;;;;0.20;0.20;;;;;;;19.03;42.12;100821.16;5121005;27;20043;-35
2022/01/08 07:46:40;;;;;;;0.20;0.20;;;;;;;19.03;42.15;100823.91;5135084;27;20362;-36
2022/01/08 07:49:05;;;;;;;0.25;0.25;;;;;;;19.03;42.25;100829.44;5135656;27;20043;-35
2022/01/08 07:51:31;;;;;;;0.20;0.20;;;;;;;19.03;42.36;100835.75;5113297;27;20050;-37
2022/01/08 07:53:56;;;;;;;0.20;0.20;;;;;;;19.02;42.20;100836.88;5133269;27;20050;-34
2022/01/08 07:56:22;;;;;;;0.20;0.20;;;;;;;19.03;42.38;100832.19;5137341;27;20038;-34
2022/01/08 07:58:48;;;;;;;0.20;0.20;;;;;;;19.03;42.18;100837.69;5118261;28;20084;-34
2022/01/08 08:01:13;;;;;;;0.20;0.20;;;;;;;19.01;42.37;100832.47;5138289;27;20042;-35
2022/01/08 08:03:39;;;;;;;0.20;0.20;;;;;;;19.02;42.19;100830.53;5134229;27;20042;-34
2022/01/08 08:06:10;;;;;;;0.20;0.20;;;;;;;19.04;42.02;100831.06;5120121;27;20042;-35
2022/01/08 08:08:35;;;;;;;0.20;0.20;;;;;;;19.02;42.29;100825.03;5136198;27;20337;-36
2022/01/08 08:11:01;;;;;;;0.30;0.30;;;;;;;19.02;42.25;100822.25;5137686;27;20039;-34
2022/01/08 08:13:27;;;;;;;0.20;0.20;;;;;;;19.01;42.13;100818.69;5122120;27;20035;-34
2022/01/08 08:15:52;;;;;;;0.20;0.20;;;;;;;19.02;42.13;100812.03;5134624;27;20432;-35
2022/01/08 08:18:18;;;;;;;0.20;0.20;;;;;;;19.02;42.17;100823.09;5136851;27;20039;-36
2022/01/08 08:20:44;;;;;;;0.30;0.30;;;;;;;19.02;42.35;100820.31;5139530;27;20057;-35
2022/01/08 08:23:10;;;;;;;0.20;0.20;;;;;;;19.03;42.17;100818.38;5134441;27;20054;-35
2022/01/08 08:25:35;;;;;;;0.30;0.30;;;;;;;19.02;42.05;100809.28;5103084;27;20049;-36
2022/01/08 08:28:03;;;;;;;0.22;0.22;;;;;;;19.03;42.16;100812.88;5132545;27;20047;-34
2022/01/08 08:30:29;;;;;;;0.10;0.10;;;;;;;19.02;42.34;100808.47;5135608;27;20051;-36
2022/01/08 08:32:54;;;;;;;0.20;0.20;;;;;;;19.02;42.11;100813.97;5139023;27;20058;-35
2022/01/08 08:35:20;;;;;;;0.20;0.20;;;;;;;19.01;42.30;100810.41;5136142;27;20354;-35
2022/01/08 08:37:47;;;;;;;0.20;0.20;;;;;;;19.02;42.29;100806.53;5131428;27;20035;-38
2022/01/08 08:40:13;;;;;;;0.20;0.20;;;;;;;19.02;42.14;100805.69;5132976;27;20083;-36
2022/01/08 08:42:40;;;;;;;0.20;0.20;;;;;;;19.01;42.19;100804.88;5115558;27;20075;-35
2022/01/08 08:45:07;;;;;;;0.20;0.20;;;;;;;19.00;42.35;100806.00;5118085;27;20235;-35
2022/01/08 08:47:32;;;;;;;0.20;0.20;;;;;;;19.01;42.21;100807.63;5133614;27;20378;-37
2022/01/08 08:49:59;;;;;;;0.20;0.20;;;;;;;19.01;42.06;100809.56;5140021;27;20058;-38
2022/01/08 08:52:25;;;;;;;0.20;0.20;;;;;;;19.02;42.26;100809.28;5117116;27;20086;-40
2022/01/08 08:54:51;;;;;;;0.30;0.30;;;;;;;19.02;42.18;100808.47;5114264;27;20541;-34
2022/01/08 08:57:17;;;;;;;0.20;0.20;;;;;;;19.03;42.10;100812.88;5136620;27;20068;-35
2022/01/08 08:59:43;;;;;;;0.20;0.20;;;;;;;19.01;42.10;100806.81;5116435;27;20124;-35
2022/01/08 09:02:08;;;;;;;0.20;0.20;;;;;;;19.01;42.11;100804.88;5136520;27;20043;-40
2022/01/08 09:04:36;;;;;;;0.20;0.20;;;;;;;19.01;42.16;100802.13;5134473;27;20633;-35
2022/01/08 09:07:04;;;;;;;0.20;0.20;;;;;;;19.01;42.42;100802.13;5135836;27;20046;-34
2022/01/08 09:09:29;;;;;;;0.20;0.20;;;;;;;19.01;42.26;100798.53;5116355;27;20047;-35
2022/01/08 09:11:55;;;;;;;0.30;0.30;;;;;;;19.01;42.20;100802.13;5138681;27;20127;-34
2022/01/08 09:14:21;;;;;;;0.20;0.20;;;;;;;19.01;42.08;100796.59;5137349;27;20039;-36
2022/01/08 09:16:51;;;;;;;0.20;0.20;;;;;;;19.01;42.19;100795.78;5102354;27;20043;-35
2022/01/08 09:19:17;;;;;;;0.20;0.20;;;;;;;19.01;42.28;100793.03;5135576;27;20063;-35
2022/01/08 09:21:43;;;;;;;0.20;0.20;;;;;;;19.01;42.08;100801.28;5127036;27;20091;-37
2022/01/08 09:24:10;;;;;;;0.20;0.20;;;;;;;19.02;42.22;100805.69;5137708;27;20047;-37
2022/01/08 09:26:35;;;;;;;0.20;0.20;;;;;;;19.01;42.40;100804.88;5139141;27;20046;-34
2022/01/08 09:29:01;;;;;;;0.20;0.20;;;;;;;19.01;42.23;100795.78;5137480;27;20047;-35
2022/01/08 09:31:27;;;;;;;0.30;0.30;;;;;;;19.01;42.28;100801.28;5133922;27;20039;-34
2022/01/08 09:33:53;;;;;;;0.20;0.20;;;;;;;19.00;42.12;100803.22;5118953;27;20058;-36
2022/01/08 09:36:18;;;;;;;0.20;0.20;;;;;;;19.00;42.32;100800.47;5116498;27;20054;-37
2022/01/08 09:38:44;;;;;;;0.28;0.28;;;;;;;19.01;42.01;100798.53;5136110;27;20074;-35
2022/01/08 09:41:10;;;;;;;0.20;0.20;;;;;;;19.01;42.08;100795.78;5122046;27;20489;-35
2022/01/08 09:43:36;;;;;;;0.20;0.20;;;;;;;19.00;42.05;100797.72;5141873;27;20043;-35
2022/01/08 09:46:02;;;;;;;0.25;0.25;;;;;;;19.01;42.33;100787.50;5120430;27;20061;-35
2022/01/08 09:48:28;;;;;;;0.20;0.20;;;;;;;19.00;42.15;100781.16;5140097;27;20053;-36
2022/01/08 09:50:54;;;;;;;0.20;0.20;;;;;;;19.01;42.26;100787.50;5121202;27;20042;-36
2022/01/08 09:53:21;;;;;;;0.20;0.20;;;;;;;19.01;42.20;100784.75;5115644;27;20476;-36
2022/01/08 09:55:46;;;;;;;0.25;0.25;;;;;;;19.00;42.14;100788.63;5117919;27;20039;-34
2022/01/08 09:58:12;;;;;;;0.20;0.20;;;;;;;19.00;42.27;100780.34;5143866;27;20039;-38
2022/01/08 10:00:38;;;;;;;0.20;0.20;;;;;;;19.00;42.13;100774.81;5141471;27;20089;-34
2022/01/08 10:03:22;;;;;;;0.20;0.20;;;;;;;19.01;41.96;100768.19;5144143;27;20055;-34
2022/01/08 10:05:50;;;;;;;0.30;0.30;;;;;;;19.00;42.15;100770.13;5114964;27;20072;-34
2022/01/08 10:08:36;;;;;;;0.20;0.20;;;;;;;19.00;42.32;100766.53;5108769;27;20046;-37
2022/01/08 10:11:04;;;;;;;0.20;0.20;;;;;;;19.00;42.08;100761.00;5129075;28;20036;-34
2022/01/08 10:13:33;;;;;;;0.20;0.20;;;;;;;18.99;42.37;100762.09;5115600;27;20042;-34
2022/01/08 10:18:46;;;;;;;0.20;0.20;;;;;;;19.00;42.10;100742.53;5105576;27;20477;-36
2022/01/08 10:21:29;;;;;;;0.20;0.20;;;;;;;19.00;42.42;100730.66;5138081;27;20492;-35
2022/01/08 10:23:57;;;;;;;0.20;0.20;;;;;;;19.00;42.12;100728.72;5099094;28;20095;-34
2022/01/08 10:26:30;;;;;;;0.20;0.20;;;;;;;18.99;42.25;100724.28;5103923;27;20084;-34
2022/01/08 10:29:02;;;;;;;0.20;0.20;;;;;;;18.98;42.29;100717.13;5142430;27;20045;-35
2022/01/08 10:31:30;;;;;;;0.20;0.20;;;;;;;19.01;42.27;100718.50;5139028;27;20062;-36
2022/01/08 10:36:39;;;;;;;0.20;0.20;;;;;;;18.99;42.39;100707.72;5161116;27;20194;-34
2022/01/08 10:39:08;;;;;;;0.20;0.20;;;;;;;18.99;42.22;100707.72;5133401;27;20074;-34
2022/01/08 10:41:38;;;;;;;0.20;0.20;;;;;;;18.99;42.15;100702.22;5136263;27;20079;-34
2022/01/08 10:44:14;;;;;;;0.20;0.20;;;;;;;18.99;42.16;100698.63;5155287;27;20066;-34
2022/01/08 10:46:57;;;;;;;0.20;0.20;;;;;;;18.98;42.14;100684.00;5157355;27;20046;-34
2022/01/08 10:49:36;;;;;;;0.20;0.20;;;;;;;18.99;42.21;100673.78;5158512;27;20488;-34
2022/01/08 10:52:06;;;;;;;0.25;0.25;;;;;;;18.99;42.05;100663.56;5134098;27;20083;-34
2022/01/08 10:54:34;;;;;;;0.20;0.20;;;;;;;18.98;42.11;100658.34;5153549;27;20053;-34
2022/01/08 10:57:02;;;;;;;0.20;0.20;;;;;;;18.99;42.23;100651.72;5159542;27;20042;-34
2022/01/08 10:59:29;;;;;;;0.13;0.13;;;;;;;18.98;42.15;100647.31;5139898;27;20039;-34
2022/01/08 11:02:04;;;;;;;0.20;0.20;;;;;;;18.98;42.13;100648.13;5157054;27;20043;-34
2022/01/08 11:04:37;;;;;;;0.20;0.20;;;;;;;18.98;42.12;100642.59;5157421;27;20096;-34
2022/01/08 11:07:06;;;;;;;0.20;0.20;;;;;;;18.99;42.30;100630.47;5155074;27;20135;-36
2022/01/08 11:09:32;;;;;;;;;;;;;;;18.98;42.25;100626.06;5157284;27;20039;-34
2022/01/08 11:11:59;;;;;;;0.20;0.20;;;;;;;18.99;42.37;100619.41;5154985;27;19930;-34
2022/01/08 11:15:02;;;;;;;0.20;0.20;;;;;;;18.99;42.04;100615.84;5134841;27;20085;-34
2022/01/08 11:17:17;;;;;;;0.20;0.20;;;;;;;18.99;42.17;100608.38;5122414;27;20415;-35
2022/01/08 11:19:46;;;;;;;0.20;0.20;;;;;;;18.98;42.25;100600.41;5121940;27;20045;-34
2022/01/08 11:22:14;;;;;;;0.20;0.20;;;;;;;18.98;42.17;100598.47;5139326;27;20038;-35
2022/01/08 11:24:46;;;;;;;0.30;0.30;;;;;;;18.98;42.10;100595.69;5129644;27;20640;-34
2022/01/08 11:27:12;;;;;;;0.20;0.20;;;;;;;18.98;42.33;100587.41;5139745;27;20282;-34
2022/01/08 11:29:39;;;;;;;0.20;0.20;;;;;;;18.99;42.21;100574.44;5154755;27;20043;-35
2022/01/08 11:32:05;;;;;;;0.20;0.20;;;;;;;18.98;42.15;100562.59;5153047;27;20090;-34
2022/01/08 11:34:31;;;;;;;0.20;0.20;;;;;;;18.98;42.06;100553.47;5154768;27;20050;-35
2022/01/08 11:36:57;;;;;;;0.20;0.20;;;;;;;18.96;42.13;100545.50;5151637;27;20039;-39
2022/01/08 11:39:26;;;;;;;0.20;0.20;;;;;;;18.98;42.09;100545.22;5133374;27;20398;-35
2022/01/08 11:41:54;;;;;;;0.20;0.20;;;;;;;18.97;42.15;100547.16;5140325;27;20034;-34
2022/01/08 11:44:20;;;;;;;0.20;0.20;;;;;;;18.97;42.04;100541.63;5155213;27;20474;-35
2022/01/08 11:46:46;;;;;;;0.20;0.20;;;;;;;18.99;42.00;100533.03;5145582;27;20051;-35
2022/01/08 11:49:14;;;;;;;0.20;0.20;;;;;;;18.97;42.22;100527.00;5139821;27;20043;-36